Time;durP1;ratioP1;P1;durP2;ratioP2;P2;SDS_P1;SDS_P2;PMS_P1;PMS_P2;Temp;Humidity;BMP_temperature;BMP_pressure;BME280_temperature;BME280_humidity;BME280_pressure;Samples;Min_cycle;Max_cycle;Signal;HPM_P1;HPM_P2
2023/09/16 00:00:21;;;;;;;17.17;7.82;;;;;;;20.44;86.87;100797.63;7358426;19;20010;-61
2023/09/16 00:02:49;;;;;;;17.38;8.55;;;;;;;20.44;86.57;100804.81;7354021;19;20634;-62
2023/09/16 00:05:17;;;;;;;18.63;7.63;;;;;;;20.42;86.85;100804.22;7336426;19;20029;-60
2023/09/16 00:07:47;;;;;;;16.30;7.20;;;;;;;20.39;87.17;100796.63;7353110;19;20015;-61
2023/09/16 00:10:23;;;;;;;20.30;8.35;;;;;;;20.36;87.65;100799.75;7353866;19;20098;-61
2023/09/16 00:12:55;;;;;;;14.43;7.50;;;;;;;20.35;87.33;100798.13;7354027;19;20065;-62
2023/09/16 00:15:27;;;;;;;14.05;7.50;;;;;;;20.34;87.18;100789.28;7356181;19;20014;-62
2023/09/16 00:18:05;;;;;;;15.25;7.25;;;;;;;20.33;87.35;100794.81;7354036;19;20015;-62
2023/09/16 00:20:37;;;;;;;14.55;7.18;;;;;;;20.27;87.21;100795.66;7349144;19;20022;-62
2023/09/16 00:23:10;;;;;;;15.05;7.43;;;;;;;20.28;86.99;100791.97;7351350;19;20018;-62
2023/09/16 00:25:42;;;;;;;14.45;7.85;;;;;;;20.23;87.59;100792.59;7354267;19;20025;-61
2023/09/16 00:28:11;;;;;;;15.73;7.88;;;;;;;20.16;87.73;100785.69;7354197;19;20018;-62
2023/09/16 00:31:15;;;;;;;;;;;;;;;20.13;88.06;100788.78;7343894;19;20034;-62
2023/09/16 00:33:51;;;;;;;17.27;7.55;;;;;;;20.04;88.58;100778.38;7350120;19;21332;-61
2023/09/16 00:36:21;;;;;;;18.83;7.65;;;;;;;19.98;88.70;100776.53;7349330;19;20137;-62
2023/09/16 00:38:52;;;;;;;15.50;7.43;;;;;;;19.93;88.93;100771.03;7350234;19;20021;-62
2023/09/16 00:41:21;;;;;;;11.55;7.30;;;;;;;19.93;89.15;100781.72;7351657;19;20010;-62
2023/09/16 00:43:51;;;;;;;12.90;7.53;;;;;;;19.92;89.30;100777.41;7353804;19;20010;-61
2023/09/16 00:46:20;;;;;;;16.90;8.05;;;;;;;19.89;88.60;100775.19;7349622;19;20064;-62
2023/09/16 00:48:49;;;;;;;17.10;7.88;;;;;;;19.88;89.01;100781.53;7352366;19;20395;-62
2023/09/16 00:51:22;;;;;;;17.38;8.10;;;;;;;19.88;88.72;100775.38;7348038;19;20760;-62
2023/09/16 00:53:51;;;;;;;16.15;8.27;;;;;;;19.88;88.94;100778.88;7351458;19;20497;-61
2023/09/16 00:56:20;;;;;;;16.75;8.57;;;;;;;19.86;89.17;100770.25;7348675;19;20323;-61
2023/09/16 00:58:48;;;;;;;18.08;8.88;;;;;;;19.90;88.77;100766.13;7338013;19;20018;-62
2023/09/16 01:01:22;;;;;;;15.73;8.55;;;;;;;19.90;88.20;100768.81;7350595;19;21852;-62
2023/09/16 01:04:02;;;;;;;19.20;8.13;;;;;;;19.90;88.70;100766.13;7351872;19;20019;-61
2023/09/16 01:06:43;;;;;;;15.80;8.30;;;;;;;19.88;88.66;100760.19;7351119;19;20022;-61
2023/09/16 01:09:11;;;;;;;20.73;8.43;;;;;;;19.86;88.72;100754.22;7352830;19;20643;-61
2023/09/16 01:11:40;;;;;;;18.35;9.40;;;;;;;19.82;88.96;100763.69;7346821;19;20052;-62
2023/09/16 01:14:11;;;;;;;13.95;9.00;;;;;;;19.80;88.89;100762.28;7352506;19;20056;-63
2023/09/16 01:16:46;;;;;;;16.75;9.07;;;;;;;19.79;89.22;100768.66;7351222;19;20014;-62
2023/09/16 01:19:19;;;;;;;16.52;9.38;;;;;;;19.78;89.59;100765.16;7352942;19;20052;-62
2023/09/16 01:21:48;;;;;;;16.02;8.88;;;;;;;19.79;89.59;100771.34;7346314;19;20659;-63
2023/09/16 01:24:28;;;;;;;17.10;9.48;;;;;;;19.77;89.32;100766.19;7334197;19;20293;-63
2023/09/16 01:26:58;;;;;;;16.03;8.40;;;;;;;19.75;89.16;100768.28;7354703;19;20042;-62
2023/09/16 01:29:26;;;;;;;21.42;9.38;;;;;;;19.71;89.61;100769.72;7357263;19;20272;-62
2023/09/16 01:31:58;;;;;;;18.75;11.35;;;;;;;19.70;89.75;100761.94;7351204;19;20091;-61
2023/09/16 01:34:30;;;;;;;21.40;11.35;;;;;;;19.72;90.54;100757.19;7358397;19;20031;-63
2023/09/16 01:37:00;;;;;;;15.93;10.63;;;;;;;19.72;89.54;100759.84;7356930;19;20625;-62
2023/09/16 01:39:29;;;;;;;17.90;10.77;;;;;;;19.68;89.66;100751.47;7360561;19;20947;-62
2023/09/16 01:41:58;;;;;;;20.27;10.48;;;;;;;19.69;89.32;100753.09;7357177;19;21766;-66
2023/09/16 01:44:26;;;;;;;18.17;10.45;;;;;;;19.69;89.45;100757.63;7360769;19;20697;-61
2023/09/16 01:46:55;;;;;;;20.45;10.07;;;;;;;19.69;88.82;100750.44;7358553;19;20112;-62
2023/09/16 01:49:26;;;;;;;18.50;10.20;;;;;;;19.70;88.98;100751.25;7361988;19;20082;-61
2023/09/16 01:51:53;;;;;;;16.25;10.80;;;;;;;19.71;89.06;100747.56;7334805;19;20061;-61
2023/09/16 01:54:23;;;;;;;22.35;11.05;;;;;;;19.74;89.47;100750.63;7357867;19;20014;-61
2023/09/16 01:56:54;;;;;;;15.05;10.43;;;;;;;19.75;88.76;100751.44;7359724;19;20401;-61
2023/09/16 01:59:22;;;;;;;17.17;9.98;;;;;;;19.74;88.93;100749.78;7360153;19;20074;-61
2023/09/16 02:01:50;;;;;;;15.82;10.52;;;;;;;19.69;89.00;100758.44;7366067;19;20014;-61
2023/09/16 02:04:22;;;;;;;18.00;9.80;;;;;;;19.66;89.47;100758.84;7357431;19;20329;-61
2023/09/16 02:06:50;;;;;;;20.60;9.95;;;;;;;19.61;89.94;100753.34;7357774;19;20019;-62
2023/09/16 02:09:21;;;;;;;18.45;10.20;;;;;;;19.57;90.29;100755.63;7356477;19;20023;-60
2023/09/16 02:12:03;;;;;;;14.18;9.90;;;;;;;19.53;90.67;100758.94;7351873;19;20015;-60
2023/09/16 02:14:38;;;;;;;16.58;9.85;;;;;;;19.53;90.78;100759.75;7356253;19;20010;-62
2023/09/16 02:17:11;;;;;;;21.80;10.52;;;;;;;19.50;90.65;100760.19;7345887;19;20021;-62
2023/09/16 02:19:45;;;;;;;21.60;10.95;;;;;;;19.48;90.87;100761.44;7360422;19;20044;-61
2023/09/16 02:22:13;;;;;;;21.60;11.02;;;;;;;19.45;90.97;100756.53;7350311;19;20014;-61
2023/09/16 02:24:42;;;;;;;18.85;11.07;;;;;;;19.43;90.72;100754.03;7364284;19;20530;-62
2023/09/16 02:27:15;;;;;;;19.73;11.10;;;;;;;19.39;91.19;100755.50;7357644;19;20055;-60
2023/09/16 02:29:43;;;;;;;19.90;13.18;;;;;;;19.43;91.33;100763.88;7360579;19;20021;-60
2023/09/16 02:32:11;;;;;;;23.80;13.13;;;;;;;19.42;91.06;100765.72;7357303;19;20129;-61
2023/09/16 02:34:40;;;;;;;22.25;11.60;;;;;;;19.44;91.00;100757.53;7356761;19;20015;-60
2023/09/16 02:37:08;;;;;;;20.88;11.90;;;;;;;19.43;90.55;100754.03;7355424;19;20019;-62
2023/09/16 02:39:39;;;;;;;21.75;12.05;;;;;;;19.40;90.56;100764.31;7359510;19;20038;-66
2023/09/16 02:42:08;;;;;;;21.23;11.55;;;;;;;19.36;90.71;100758.56;7356991;19;20014;-62
2023/09/16 02:44:37;;;;;;;23.42;12.93;;;;;;;19.36;90.82;100763.09;7335507;19;20210;-61
2023/09/16 02:47:06;;;;;;;23.15;13.20;;;;;;;19.36;91.82;100757.75;7335314;19;20038;-60
2023/09/16 02:49:34;;;;;;;23.48;13.57;;;;;;;19.37;91.67;100760.22;7358876;19;20010;-62
2023/09/16 02:52:01;;;;;;;22.70;13.45;;;;;;;19.38;91.03;100753.03;7351937;19;20026;-62
2023/09/16 02:54:29;;;;;;;22.42;13.00;;;;;;;19.41;91.02;100744.59;7355320;19;21797;-64
2023/09/16 02:56:58;;;;;;;24.17;13.30;;;;;;;19.37;90.53;100749.53;7353819;19;20030;-62
2023/09/16 02:59:27;;;;;;;17.63;12.02;;;;;;;19.33;90.78;100748.31;7354832;19;20026;-62
2023/09/16 03:01:55;;;;;;;22.73;11.77;;;;;;;19.32;91.29;100748.53;7355362;19;20022;-61
2023/09/16 03:04:26;;;;;;;23.80;13.85;;;;;;;19.29;91.56;100752.44;7360765;19;20002;-60
2023/09/16 03:06:54;;;;;;;23.55;13.18;;;;;;;19.27;91.83;100756.34;7356730;19;20493;-61
2023/09/16 03:09:22;;;;;;;21.17;13.35;;;;;;;19.25;91.75;100758.44;7359126;19;20014;-62
2023/09/16 03:11:53;;;;;;;18.92;12.93;;;;;;;19.21;92.08;100753.50;7353812;19;20038;-62
2023/09/16 03:14:24;;;;;;;29.00;14.93;;;;;;;19.17;92.06;100754.94;7352893;19;20070;-62
2023/09/16 03:16:52;;;;;;;22.10;13.60;;;;;;;19.17;92.38;100754.13;7355867;19;20506;-61
2023/09/16 03:19:20;;;;;;;24.88;14.43;;;;;;;19.16;92.38;100749.81;7356213;19;20015;-61
2023/09/16 03:21:48;;;;;;;22.50;14.55;;;;;;;19.12;92.40;100749.44;7351098;19;20024;-61
2023/09/16 03:24:19;;;;;;;24.75;14.77;;;;;;;19.14;92.41;100757.22;7352054;19;20011;-61
2023/09/16 03:26:47;;;;;;;26.67;14.90;;;;;;;19.12;92.39;100745.94;7334912;19;20407;-62
2023/09/16 03:29:15;;;;;;;26.08;14.40;;;;;;;19.11;92.67;100746.97;7356774;19;20098;-62
2023/09/16 03:31:42;;;;;;;23.02;14.60;;;;;;;19.08;92.82;100750.06;7345052;19;20018;-62
2023/09/16 03:34:10;;;;;;;25.20;15.52;;;;;;;19.09;92.40;100744.53;7357994;19;20026;-62
2023/09/16 03:36:38;;;;;;;27.25;16.23;;;;;;;19.04;92.14;100741.69;7354605;19;20449;-62
2023/09/16 03:39:07;;;;;;;25.23;15.57;;;;;;;18.98;92.15;100733.69;7354941;19;20094;-63
2023/09/16 03:42:30;;;;;;;26.30;16.17;;;;;;;18.92;92.57;100739.84;7348033;19;20022;-66
2023/09/16 03:44:58;;;;;;;30.55;15.63;;;;;;;18.85;92.94;100739.84;7359467;19;20668;-61
2023/09/16 03:47:25;;;;;;;27.45;16.13;;;;;;;18.82;93.12;100739.47;7360408;19;20542;-61
2023/09/16 03:49:52;;;;;;;27.25;15.77;;;;;;;18.80;93.13;100739.66;7359316;19;20014;-61
2023/09/16 03:52:19;;;;;;;25.80;16.00;;;;;;;18.78;93.40;100736.41;7356883;19;20022;-62
2023/09/16 03:54:46;;;;;;;26.63;16.48;;;;;;;18.81;93.32;100738.63;7358109;19;20482;-60
2023/09/16 03:57:13;;;;;;;27.20;16.48;;;;;;;18.83;93.20;100731.25;7349531;19;20017;-63
2023/09/16 03:59:41;;;;;;;27.95;17.10;;;;;;;18.78;93.20;100731.91;7357374;19;20018;-62
2023/09/16 04:02:09;;;;;;;26.65;16.08;;;;;;;18.76;93.50;100733.94;7355720;19;20074;-62
2023/09/16 04:04:36;;;;;;;26.75;15.82;;;;;;;18.76;93.32;100731.28;7358195;19;20006;-65
2023/09/16 04:07:03;;;;;;;29.92;15.70;;;;;;;18.77;93.32;100740.91;7355399;19;20612;-62
2023/09/16 04:09:30;;;;;;;29.75;17.42;;;;;;;18.78;93.09;100734.56;7358488;19;20006;-64
2023/09/16 04:11:57;;;;;;;25.50;15.85;;;;;;;18.80;92.90;100734.34;7356986;19;20807;-61
2023/09/16 04:14:25;;;;;;;29.90;18.08;;;;;;;18.76;92.95;100731.28;7354346;19;20463;-63
2023/09/16 04:16:52;;;;;;;29.27;16.65;;;;;;;18.75;93.20;100739.47;7353457;19;20010;-61
2023/09/16 04:19:19;;;;;;;28.90;17.23;;;;;;;18.75;92.46;100734.13;7357186;19;20022;-62
2023/09/16 04:21:46;;;;;;;26.52;15.13;;;;;;;18.72;92.88;100735.38;7348885;19;20580;-60
2023/09/16 04:24:14;;;;;;;27.17;16.52;;;;;;;18.70;92.94;100728.63;7356045;19;20121;-61
2023/09/16 04:26:41;;;;;;;23.50;15.13;;;;;;;18.71;92.96;100728.41;7355412;19;20734;-61
2023/09/16 04:29:08;;;;;;;26.38;15.27;;;;;;;18.72;92.35;100724.72;7357034;19;20022;-61
2023/09/16 04:31:36;;;;;;;24.77;15.40;;;;;;;18.65;92.42;100725.75;7355533;19;20101;-61
2023/09/16 04:34:04;;;;;;;26.38;14.93;;;;;;;18.57;92.52;100723.31;7354563;19;20010;-61
2023/09/16 04:36:31;;;;;;;29.08;15.50;;;;;;;18.47;92.90;100726.38;7354224;19;20022;-64
2023/09/16 04:38:58;;;;;;;25.08;15.30;;;;;;;18.42;93.16;100728.84;7352941;19;20011;-61
2023/09/16 04:41:25;;;;;;;26.88;15.00;;;;;;;18.38;93.58;100730.28;7352011;19;20022;-61
2023/09/16 04:43:53;;;;;;;24.58;13.63;;;;;;;18.36;93.96;100729.66;7353438;19;20040;-62
2023/09/16 04:46:20;;;;;;;25.73;15.13;;;;;;;18.37;93.78;100724.13;7354185;19;20757;-62
2023/09/16 04:48:48;;;;;;;26.33;14.88;;;;;;;18.41;94.97;100729.03;7351532;19;20508;-62
2023/09/16 04:51:16;;;;;;;25.88;14.77;;;;;;;18.43;94.35;100727.00;7353661;19;20007;-61
2023/09/16 04:53:43;;;;;;;26.70;15.20;;;;;;;18.43;93.08;100732.31;7355593;19;20077;-61
2023/09/16 04:56:10;;;;;;;33.17;15.73;;;;;;;18.36;93.55;100741.13;7353668;19;20034;-61
2023/09/16 04:58:38;;;;;;;24.42;15.50;;;;;;;18.35;93.92;100728.00;7356039;19;20113;-62
2023/09/16 05:01:05;;;;;;;27.15;15.63;;;;;;;18.32;93.84;100739.91;7354683;19;20494;-62
2023/09/16 05:03:33;;;;;;;27.98;14.57;;;;;;;18.35;94.71;100739.50;7354386;19;20022;-63
2023/09/16 05:06:00;;;;;;;28.13;15.90;;;;;;;18.32;94.17;100733.75;7351980;19;20018;-62
2023/09/16 05:08:27;;;;;;;28.00;16.27;;;;;;;18.28;94.35;100740.53;7354692;19;20014;-62
2023/09/16 05:10:55;;;;;;;27.80;15.82;;;;;;;18.28;94.29;100740.53;7362399;19;20018;-62
2023/09/16 05:13:23;;;;;;;25.55;14.95;;;;;;;18.26;94.72;100726.59;7361279;19;20034;-62
2023/09/16 05:15:50;;;;;;;27.73;15.80;;;;;;;18.26;94.73;100745.25;7353303;19;20015;-61
2023/09/16 05:18:18;;;;;;;29.83;16.65;;;;;;;18.25;95.27;100740.94;7360971;19;20067;-61
2023/09/16 05:20:45;;;;;;;23.52;15.25;;;;;;;18.20;94.84;100736.22;7360870;19;20013;-61
2023/09/16 05:23:13;;;;;;;24.83;15.95;;;;;;;18.22;95.02;100733.34;7359782;19;20557;-61
2023/09/16 05:25:45;;;;;;;27.50;16.58;;;;;;;18.25;94.87;100743.59;7362487;19;20018;-62
2023/09/16 05:28:12;;;;;;;26.25;15.48;;;;;;;18.23;94.89;100751.81;7361488;19;20006;-61
2023/09/16 05:30:42;;;;;;;26.75;15.70;;;;;;;18.27;94.62;100746.88;7363299;19;21186;-61
2023/09/16 05:33:10;;;;;;;30.38;16.80;;;;;;;18.31;95.10;100748.09;7361075;19;20684;-61
2023/09/16 05:35:38;;;;;;;28.63;16.80;;;;;;;18.33;94.53;100751.41;7357898;19;20017;-62
2023/09/16 05:38:06;;;;;;;31.23;16.38;;;;;;;18.33;94.66;100746.88;7357763;19;20046;-62
2023/09/16 05:40:36;;;;;;;28.05;15.45;;;;;;;18.35;94.73;100746.66;7356198;19;20024;-62
2023/09/16 05:43:03;;;;;;;30.63;16.50;;;;;;;18.35;94.91;100747.50;7355232;19;20371;-62
2023/09/16 05:45:31;;;;;;;29.08;17.25;;;;;;;18.39;94.08;100754.03;7360065;19;20019;-62
2023/09/16 05:48:02;;;;;;;28.13;16.42;;;;;;;18.35;94.27;100758.16;7360125;19;20025;-62
2023/09/16 05:50:30;;;;;;;27.27;16.37;;;;;;;18.28;94.45;100759.19;7361494;19;20322;-61
2023/09/16 05:52:58;;;;;;;27.38;16.55;;;;;;;18.20;94.62;100760.19;7358764;19;20074;-60
2023/09/16 05:55:25;;;;;;;27.27;17.65;;;;;;;18.15;94.57;100762.66;7359720;19;20307;-62
2023/09/16 05:57:54;;;;;;;27.52;17.13;;;;;;;18.13;94.72;100764.72;7359835;19;20014;-61
2023/09/16 06:00:21;;;;;;;27.80;16.75;;;;;;;18.07;95.01;100768.19;7364104;19;20046;-62
2023/09/16 06:02:49;;;;;;;28.88;17.23;;;;;;;18.07;94.87;100772.69;7359015;19;20010;-62
2023/09/16 06:05:16;;;;;;;30.83;17.48;;;;;;;18.06;95.76;100768.38;7362630;19;20097;-61
2023/09/16 06:07:43;;;;;;;30.52;17.33;;;;;;;18.07;96.17;100767.34;7356606;19;20473;-61
2023/09/16 06:10:12;;;;;;;27.63;17.40;;;;;;;18.09;95.64;100771.44;7362231;19;20641;-61
2023/09/16 06:12:39;;;;;;;31.27;17.60;;;;;;;18.07;95.97;100768.19;7358378;19;20007;-62
2023/09/16 06:15:08;;;;;;;31.15;17.60;;;;;;;18.04;95.93;100776.56;7358287;19;20461;-63
2023/09/16 06:17:35;;;;;;;25.45;15.77;;;;;;;18.00;95.99;100772.66;7352296;19;20021;-62
2023/09/16 06:20:03;;;;;;;31.77;18.00;;;;;;;18.01;96.02;100782.31;7358166;19;20062;-61
2023/09/16 06:22:30;;;;;;;31.80;18.63;;;;;;;18.04;96.21;100789.06;7357948;19;20019;-65
2023/09/16 06:24:57;;;;;;;34.58;17.45;;;;;;;18.04;96.13;100784.56;7361250;19;20017;-61
2023/09/16 06:27:25;;;;;;;33.65;17.90;;;;;;;17.96;96.36;100792.75;7358900;19;20085;-62
2023/09/16 06:29:52;;;;;;;29.80;17.90;;;;;;;17.93;96.60;100788.63;7361530;19;20019;-63
2023/09/16 06:32:21;;;;;;;29.00;17.35;;;;;;;17.94;96.78;100789.44;7357165;19;20025;-60
2023/09/16 06:34:49;;;;;;;27.20;17.00;;;;;;;17.98;96.81;100795.22;7360397;19;20014;-62
2023/09/16 06:37:16;;;;;;;26.33;15.98;;;;;;;17.97;96.60;100791.72;7355462;19;21721;-62
2023/09/16 06:39:45;;;;;;;27.23;17.50;;;;;;;17.95;96.88;100802.56;7366022;19;20018;-62
2023/09/16 06:42:13;;;;;;;30.50;18.95;;;;;;;17.95;96.86;100810.56;7357839;19;20019;-62
2023/09/16 06:44:40;;;;;;;32.83;17.95;;;;;;;17.99;96.71;100807.47;7354791;19;20014;-61
2023/09/16 06:47:07;;;;;;;31.67;17.05;;;;;;;18.00;96.48;100806.47;7352830;19;20130;-64
2023/09/16 06:49:35;;;;;;;28.83;18.00;;;;;;;18.01;96.71;100808.09;7360545;19;20046;-63
2023/09/16 06:52:02;;;;;;;27.13;17.90;;;;;;;18.04;96.48;100818.34;7355537;19;20018;-61
2023/09/16 06:54:30;;;;;;;29.70;18.58;;;;;;;18.09;96.75;100822.03;7359769;19;20019;-62
2023/09/16 06:56:59;;;;;;;30.75;18.27;;;;;;;18.09;96.37;100823.88;7357175;19;20011;-62
2023/09/16 06:59:28;;;;;;;31.08;18.08;;;;;;;18.11;96.01;100821.84;7358377;19;20014;-62
2023/09/16 07:02:09;;;;;;;;;;;;;;;18.14;95.66;100824.94;7359140;19;20460;-62
2023/09/16 07:04:40;;;;;;;27.52;17.67;;;;;;;18.13;95.26;100833.13;7359451;19;19923;-62
2023/09/16 07:07:09;;;;;;;37.95;19.23;;;;;;;18.15;95.25;100828.41;7355669;19;21965;-62
2023/09/16 07:09:36;;;;;;;29.05;17.50;;;;;;;18.19;95.30;100838.47;7357416;19;20078;-61
2023/09/16 07:12:05;;;;;;;31.88;18.58;;;;;;;18.24;95.96;100845.84;7352438;19;20629;-61
2023/09/16 07:14:37;;;;;;;30.60;18.40;;;;;;;18.25;95.25;100842.16;7356544;19;20022;-64
2023/09/16 07:17:04;;;;;;;27.75;17.13;;;;;;;18.29;94.88;100846.88;7351012;19;20034;-61
2023/09/16 07:19:33;;;;;;;34.05;18.90;;;;;;;18.31;94.63;100852.84;7356055;19;20006;-62
2023/09/16 07:22:01;;;;;;;35.03;18.77;;;;;;;18.30;94.44;100853.84;7354458;19;20014;-61
2023/09/16 07:24:29;;;;;;;30.42;17.30;;;;;;;18.33;94.42;100847.31;7359079;19;20018;-60
2023/09/16 07:26:56;;;;;;;33.72;18.98;;;;;;;18.34;94.88;100860.41;7355331;19;20033;-61
2023/09/16 07:29:24;;;;;;;31.90;18.88;;;;;;;18.34;95.06;100857.75;7359250;19;20022;-61
2023/09/16 07:31:51;;;;;;;34.50;19.38;;;;;;;18.33;95.09;100864.13;7354620;19;20074;-63
2023/09/16 07:34:22;;;;;;;28.88;18.60;;;;;;;18.35;94.99;100870.06;7359070;19;20025;-62
2023/09/16 07:36:49;;;;;;;32.92;19.05;;;;;;;18.37;94.91;100865.34;7348650;19;20018;-63
2023/09/16 07:39:16;;;;;;;32.60;18.50;;;;;;;18.42;94.70;100867.41;7356638;19;20534;-61
2023/09/16 07:41:44;;;;;;;36.85;20.30;;;;;;;18.38;94.94;100864.34;7355759;19;20011;-63
2023/09/16 07:44:11;;;;;;;35.03;19.88;;;;;;;18.39;95.50;100867.78;7358368;19;20610;-61
2023/09/16 07:46:38;;;;;;;36.78;18.33;;;;;;;18.42;95.31;100874.56;7353215;19;20467;-61
2023/09/16 07:49:06;;;;;;;35.42;19.67;;;;;;;18.43;94.58;100868.22;7355316;19;20043;-62
2023/09/16 07:51:33;;;;;;;30.50;18.73;;;;;;;18.44;95.38;100888.53;7353752;19;20010;-61
2023/09/16 07:54:01;;;;;;;31.55;19.58;;;;;;;18.45;95.13;100877.66;7357559;19;20047;-61
2023/09/16 07:56:28;;;;;;;32.80;19.30;;;;;;;18.49;95.54;100880.75;7353282;19;20010;-63
2023/09/16 07:58:56;;;;;;;36.25;19.10;;;;;;;18.47;95.57;100883.59;7357741;19;20030;-62
2023/09/16 08:01:23;;;;;;;33.65;19.35;;;;;;;18.41;96.71;100886.25;7355040;19;20040;-61
2023/09/16 08:03:51;;;;;;;32.90;19.08;;;;;;;18.47;96.72;100880.13;7357537;19;20637;-61
2023/09/16 08:06:19;;;;;;;31.95;19.30;;;;;;;18.52;96.90;100893.66;7352521;19;20015;-60
2023/09/16 08:08:49;;;;;;;31.38;18.15;;;;;;;18.60;97.06;100886.31;7357707;19;20101;-61
2023/09/16 08:11:17;;;;;;;32.53;18.27;;;;;;;18.68;97.31;100883.47;7348355;19;20015;-63
2023/09/16 08:13:44;;;;;;;30.40;18.42;;;;;;;18.78;96.13;100883.88;7357370;19;20036;-62
2023/09/16 08:16:12;;;;;;;29.17;17.20;;;;;;;18.90;95.09;100894.72;7354319;19;20025;-61
2023/09/16 08:18:39;;;;;;;29.30;18.65;;;;;;;19.00;94.77;100900.47;7351318;19;20022;-61
2023/09/16 08:21:07;;;;;;;35.90;17.67;;;;;;;19.06;94.10;100896.16;7354964;19;20022;-62
2023/09/16 08:23:34;;;;;;;29.38;16.80;;;;;;;19.15;93.80;100895.72;7354514;19;20175;-61
2023/09/16 08:26:02;;;;;;;29.02;17.35;;;;;;;19.21;93.57;100894.91;7356957;19;20003;-60
2023/09/16 08:28:30;;;;;;;31.52;17.23;;;;;;;19.26;93.77;100902.28;7355902;19;20411;-63
2023/09/16 08:30:58;;;;;;;29.63;15.73;;;;;;;19.30;93.88;100903.50;7356338;19;20439;-62
2023/09/16 08:33:25;;;;;;;28.38;14.90;;;;;;;19.44;92.51;100891.84;7354706;19;20553;-62
2023/09/16 08:35:53;;;;;;;30.15;15.75;;;;;;;19.52;91.61;100901.44;7354142;19;20095;-62
2023/09/16 08:38:20;;;;;;;26.25;15.02;;;;;;;19.57;91.45;100906.97;7352686;19;20038;-63
2023/09/16 08:40:56;;;;;;;26.55;14.50;;;;;;;19.63;91.36;100904.28;7348413;19;20697;-62
2023/09/16 08:43:32;;;;;;;25.02;13.57;;;;;;;19.68;91.03;100898.31;7350423;19;20011;-61
2023/09/16 08:46:02;;;;;;;22.70;13.77;;;;;;;19.73;91.18;100903.84;7354907;19;20514;-63
2023/09/16 08:51:08;;;;;;;24.58;14.02;;;;;;;19.86;91.11;100901.13;7356954;19;20018;-62
2023/09/16 08:53:38;;;;;;;24.80;13.40;;;;;;;19.97;89.90;100904.97;7353929;19;20727;-62
2023/09/16 08:56:06;;;;;;;29.33;13.75;;;;;;;20.06;89.53;100903.72;7353612;19;20018;-62
2023/09/16 08:58:35;;;;;;;22.88;12.18;;;;;;;20.13;89.13;100903.69;7354779;19;20033;-62
2023/09/16 09:01:03;;;;;;;23.92;12.77;;;;;;;20.22;88.44;100905.88;7355449;19;20183;-61
2023/09/16 09:03:32;;;;;;;20.05;12.10;;;;;;;20.22;88.03;100913.91;7355624;19;20075;-61
2023/09/16 09:06:00;;;;;;;25.10;12.10;;;;;;;20.22;88.02;100910.41;7353808;19;20018;-60
2023/09/16 09:08:28;;;;;;;22.70;12.20;;;;;;;20.27;87.96;100906.06;7354654;19;20003;-61
2023/09/16 09:10:57;;;;;;;23.27;11.80;;;;;;;20.35;87.19;100900.50;7352702;19;20017;-60
2023/09/16 09:13:25;;;;;;;20.45;12.57;;;;;;;20.38;86.68;100901.91;7355143;19;20074;-62
2023/09/16 09:15:58;;;;;;;21.35;11.38;;;;;;;20.44;86.48;100909.91;7360761;19;20445;-61
2023/09/16 09:18:28;;;;;;;20.17;11.27;;;;;;;20.52;86.41;100905.34;7351210;19;20015;-62
2023/09/16 09:20:56;;;;;;;21.77;10.85;;;;;;;20.60;85.66;100897.06;7352695;19;20034;-63
2023/09/16 09:23:25;;;;;;;19.38;9.55;;;;;;;20.66;85.44;100896.19;7354056;19;20026;-60
2023/09/16 09:25:52;;;;;;;15.60;8.70;;;;;;;20.74;83.24;100895.91;7355091;19;20022;-61
2023/09/16 09:28:20;;;;;;;17.48;8.27;;;;;;;20.79;82.84;100899.56;7351854;19;20019;-61
2023/09/16 09:30:48;;;;;;;12.15;7.85;;;;;;;20.87;82.64;100903.84;7354394;19;20025;-61
2023/09/16 09:33:21;;;;;;;16.73;8.02;;;;;;;20.95;82.59;100894.72;7351008;19;20035;-61
2023/09/16 09:35:48;;;;;;;15.57;8.35;;;;;;;21.04;82.39;100896.06;7353211;19;20376;-61
2023/09/16 09:38:17;;;;;;;15.88;8.52;;;;;;;21.10;81.67;100900.56;7351002;19;20018;-62
2023/09/16 09:40:56;;;;;;;13.32;8.70;;;;;;;21.16;81.42;100902.38;7357135;19;20324;-61
2023/09/16 09:43:24;;;;;;;16.83;7.68;;;;;;;21.17;80.94;100901.34;7355442;19;20018;-63
2023/09/16 09:45:52;;;;;;;16.33;8.15;;;;;;;21.23;81.08;100903.94;7357046;19;20010;-64
2023/09/16 09:48:19;;;;;;;13.63;7.72;;;;;;;21.30;81.03;100898.53;7356563;19;20082;-60
2023/09/16 09:50:47;;;;;;;16.20;8.77;;;;;;;21.42;81.00;100898.63;7352979;19;20024;-62
2023/09/16 09:53:15;;;;;;;18.30;8.55;;;;;;;21.47;81.41;100896.09;7351336;19;20590;-62
2023/09/16 09:55:43;;;;;;;14.85;8.18;;;;;;;21.56;80.63;100886.72;7358744;19;20035;-63
2023/09/16 09:58:11;;;;;;;16.58;8.55;;;;;;;21.62;80.78;100897.38;7359605;19;20018;-62
2023/09/16 10:00:47;;;;;;;14.93;8.13;;;;;;;21.68;79.77;100890.31;7362576;19;20021;-62
2023/09/16 10:03:17;;;;;;;13.10;7.47;;;;;;;21.71;79.89;100884.50;7352495;19;20015;-63
2023/09/16 10:05:45;;;;;;;14.20;7.18;;;;;;;21.75;80.08;100883.00;7354869;19;20015;-63
2023/09/16 10:08:13;;;;;;;12.45;7.18;;;;;;;21.84;78.75;100884.31;7358131;19;20015;-61
2023/09/16 10:10:41;;;;;;;12.77;7.00;;;;;;;21.89;78.25;100889.81;7358808;19;20014;-62
2023/09/16 10:13:09;;;;;;;9.07;5.60;;;;;;;21.94;77.67;100889.19;7357325;19;20002;-62
2023/09/16 10:15:39;;;;;;;12.20;5.75;;;;;;;21.95;78.28;100880.91;7359732;19;20377;-62
2023/09/16 10:18:07;;;;;;;9.13;5.85;;;;;;;22.08;77.18;100879.94;7357787;19;20097;-62
2023/09/16 10:20:38;;;;;;;10.30;5.22;;;;;;;22.13;76.49;100888.94;7356099;19;20623;-63
2023/09/16 10:23:06;;;;;;;13.05;6.25;;;;;;;22.21;76.18;100882.41;7357482;19;20017;-62
2023/09/16 10:25:35;;;;;;;11.18;4.70;;;;;;;22.27;76.13;100886.06;7360203;19;20834;-63
2023/09/16 10:28:08;;;;;;;11.27;5.82;;;;;;;22.33;76.27;100893.19;7355092;19;20018;-62
2023/09/16 10:30:37;;;;;;;9.15;4.60;;;;;;;22.46;74.39;100893.81;7363345;19;20056;-62
2023/09/16 10:33:06;;;;;;;9.80;4.30;;;;;;;22.48;75.25;100890.91;7360652;19;20046;-62
2023/09/16 10:35:39;;;;;;;9.55;4.30;;;;;;;22.51;75.07;100887.75;7359490;19;20025;-63
2023/09/16 10:38:08;;;;;;;9.68;4.50;;;;;;;22.64;74.73;100884.06;7357678;19;20006;-63
2023/09/16 10:40:37;;;;;;;7.35;4.22;;;;;;;22.68;74.35;100885.22;7359628;19;21091;-63
2023/09/16 10:43:06;;;;;;;10.60;4.85;;;;;;;22.72;73.90;100887.25;7359192;19;20431;-65
2023/09/16 10:45:33;;;;;;;8.13;4.63;;;;;;;22.84;73.16;100888.09;7362183;19;20014;-62
2023/09/16 10:48:02;;;;;;;13.13;4.68;;;;;;;22.86;73.55;100885.97;7358027;19;20054;-61
2023/09/16 10:50:36;;;;;;;15.05;5.13;;;;;;;22.95;72.76;100889.16;7359501;19;20018;-62
2023/09/16 10:53:07;;;;;;;11.60;5.07;;;;;;;23.08;72.36;100882.72;7357092;19;20040;-63
2023/09/16 10:55:46;;;;;;;7.95;4.03;;;;;;;23.12;71.96;100884.69;7352183;19;20010;-61
2023/09/16 10:58:19;;;;;;;9.82;4.82;;;;;;;23.14;71.81;100879.94;7356759;19;20046;-61
2023/09/16 11:00:50;;;;;;;8.25;3.58;;;;;;;23.16;71.90;100875.13;7359330;19;20018;-65
2023/09/16 11:03:18;;;;;;;12.13;3.33;;;;;;;23.19;72.93;100879.22;7356791;19;20019;-61
2023/09/16 11:05:47;;;;;;;8.45;3.88;;;;;;;23.22;71.58;100878.75;7353417;19;20407;-61
2023/09/16 11:08:15;;;;;;;9.13;3.40;;;;;;;23.28;71.39;100881.31;7356407;19;20021;-61
2023/09/16 11:10:42;;;;;;;6.28;3.63;;;;;;;23.33;70.48;100876.06;7358360;19;20019;-62
2023/09/16 11:13:11;;;;;;;7.63;4.25;;;;;;;23.39;70.22;100868.94;7356538;19;20041;-64
2023/09/16 11:15:41;;;;;;;8.70;2.42;;;;;;;23.46;70.27;100868.84;7357922;19;20382;-61
2023/09/16 11:18:09;;;;;;;6.80;2.80;;;;;;;23.55;69.81;100864.72;7357208;19;20078;-61
2023/09/16 11:20:38;;;;;;;6.22;2.15;;;;;;;23.63;68.96;100865.16;7351991;19;20746;-61
2023/09/16 11:23:07;;;;;;;9.60;2.47;;;;;;;23.64;66.94;100856.06;7353315;19;20380;-62